Time;durP1;ratioP1;P1;durP2;ratioP2;P2;SDS_P1;SDS_P2;PMS_P1;PMS_P2;Temp;Humidity;BMP_temperature;BMP_pressure;BME280_temperature;BME280_humidity;BME280_pressure;Samples;Min_cycle;Max_cycle;Signal;HPM_P1;HPM_P2
2023/08/15 00:02:18;;;;;;;19.75;8.57;;;20.90;99.90;;;;;;4951314;28;20035;-73
2023/08/15 00:04:44;;;;;;;13.35;8.02;;;20.90;99.90;;;;;;4936384;29;20126;-73
2023/08/15 00:07:10;;;;;;;14.52;8.43;;;20.90;99.90;;;;;;4948132;28;20046;-74
2023/08/15 00:09:35;;;;;;;11.07;8.00;;;20.90;99.90;;;;;;4947930;28;20055;-73
2023/08/15 00:12:01;;;;;;;16.75;8.57;;;20.80;99.90;;;;;;4938949;29;20035;-73
2023/08/15 00:14:27;;;;;;;18.20;8.18;;;20.90;99.90;;;;;;4950339;28;20049;-73
2023/08/15 00:16:53;;;;;;;14.20;7.63;;;20.90;99.90;;;;;;4938766;28;20102;-73
2023/08/15 00:19:19;;;;;;;12.55;7.65;;;20.90;99.90;;;;;;4936179;28;20468;-73
2023/08/15 00:21:45;;;;;;;13.48;8.48;;;20.80;99.90;;;;;;4929057;29;20042;-73
2023/08/15 00:24:10;;;;;;;12.43;7.55;;;20.60;99.90;;;;;;4917550;29;20039;-73
2023/08/15 00:26:36;;;;;;;14.20;7.72;;;20.50;99.90;;;;;;4917678;29;20024;-74
2023/08/15 00:29:02;;;;;;;16.63;9.77;;;20.50;99.90;;;;;;4934621;29;20477;-74
2023/08/15 00:31:28;;;;;;;14.63;9.05;;;20.50;99.90;;;;;;4934910;29;20027;-73
2023/08/15 00:33:54;;;;;;;14.65;9.05;;;20.50;99.90;;;;;;4935312;29;20034;-73
2023/08/15 00:36:20;;;;;;;14.98;9.30;;;20.50;99.90;;;;;;4933922;29;20384;-74
2023/08/15 00:38:45;;;;;;;17.35;9.30;;;20.40;99.90;;;;;;4922253;29;20076;-74
2023/08/15 00:41:11;;;;;;;16.27;9.10;;;20.40;99.90;;;;;;4918095;29;20042;-75
2023/08/15 00:43:38;;;;;;;16.63;10.00;;;20.30;99.90;;;;;;4938582;28;20181;-74
2023/08/15 00:46:06;;;;;;;15.70;9.20;;;20.20;99.90;;;;;;4921147;29;20122;-74
2023/08/15 00:48:33;;;;;;;15.77;10.02;;;20.20;99.90;;;;;;4933698;29;20385;-74
2023/08/15 00:51:01;;;;;;;18.30;9.50;;;20.20;99.90;;;;;;4916808;29;20110;-74
2023/08/15 00:53:30;;;;;;;13.70;8.32;;;20.30;99.90;;;;;;4916644;29;20020;-74
2023/08/15 00:55:58;;;;;;;13.70;8.38;;;20.30;99.90;;;;;;4934934;29;20031;-74
2023/08/15 00:58:25;;;;;;;13.02;8.10;;;20.20;99.90;;;;;;4933718;29;20043;-74
2023/08/15 01:00:51;;;;;;;14.27;8.43;;;20.20;99.90;;;;;;4917429;29;20032;-74
2023/08/15 01:03:17;;;;;;;19.17;10.88;;;20.20;99.90;;;;;;4937738;28;20514;-74
2023/08/15 01:05:44;;;;;;;15.48;8.98;;;20.10;99.90;;;;;;4952745;28;20087;-74
2023/08/15 01:08:11;;;;;;;13.65;8.90;;;20.10;99.90;;;;;;4960383;28;20030;-74
2023/08/15 01:10:40;;;;;;;13.32;8.95;;;20.20;99.90;;;;;;4963446;28;20087;-74
2023/08/15 01:13:27;;;;;;;13.65;8.93;;;20.20;99.90;;;;;;4942339;28;20026;-74
2023/08/15 01:15:53;;;;;;;13.30;8.70;;;20.10;99.90;;;;;;4942677;28;20399;-74
2023/08/15 01:18:28;;;;;;;14.02;9.23;;;20.20;99.90;;;;;;4955191;28;20019;-74
2023/08/15 01:20:56;;;;;;;13.38;8.82;;;20.10;99.90;;;;;;4954769;28;20281;-74
2023/08/15 01:23:37;;;;;;;16.02;8.20;;;20.20;99.90;;;;;;4937723;29;20043;-74
2023/08/15 01:26:03;;;;;;;16.95;8.93;;;20.10;99.90;;;;;;4937737;29;20118;-74
2023/08/15 01:28:29;;;;;;;15.77;9.68;;;20.00;99.90;;;;;;4954912;28;20111;-74
2023/08/15 01:31:25;;;;;;;15.02;8.85;;;20.00;99.90;;;;;;4954533;28;20532;-73
2023/08/15 01:34:11;;;;;;;13.77;9.45;;;19.90;99.90;;;;;;4895620;29;20048;-74
2023/08/15 01:37:06;;;;;;;14.77;9.20;;;19.90;99.90;;;;;;4879885;29;20401;-73
2023/08/15 01:39:37;;;;;;;16.70;8.85;;;19.80;99.90;;;;;;4879625;29;20481;-74
2023/08/15 01:42:04;;;;;;;20.02;9.35;;;19.90;99.90;;;;;;4895562;29;20044;-74
2023/08/15 01:44:31;;;;;;;17.42;9.95;;;19.90;99.90;;;;;;4879913;29;20044;-74
2023/08/15 01:46:58;;;;;;;14.95;9.88;;;19.80;99.90;;;;;;4887004;29;20412;-74
2023/08/15 01:49:23;;;;;;;15.07;9.35;;;19.70;99.90;;;;;;4895449;29;20024;-74
2023/08/15 01:51:50;;;;;;;15.73;9.80;;;19.70;99.90;;;;;;4894633;29;20519;-74
2023/08/15 01:54:16;;;;;;;14.18;9.52;;;19.80;99.90;;;;;;4895527;29;20045;-74
2023/08/15 01:56:42;;;;;;;15.10;10.15;;;19.70;99.90;;;;;;4879454;29;20036;-74
2023/08/15 01:59:08;;;;;;;16.17;10.32;;;19.70;99.90;;;;;;4879624;29;20477;-74
2023/08/15 02:01:34;;;;;;;14.60;9.38;;;19.70;99.90;;;;;;4879064;29;20112;-74
2023/08/15 02:04:00;;;;;;;15.77;9.63;;;19.70;99.90;;;;;;4879589;29;20483;-74
2023/08/15 02:06:25;;;;;;;15.70;9.40;;;19.70;99.90;;;;;;4894821;29;20035;-73
2023/08/15 02:08:51;;;;;;;14.82;9.02;;;19.70;99.90;;;;;;4879465;29;20049;-74
2023/08/15 02:11:17;;;;;;;13.90;9.45;;;19.80;99.90;;;;;;4928975;28;20074;-74
2023/08/15 02:13:43;;;;;;;15.80;9.75;;;19.70;99.90;;;;;;4936576;29;20507;-73
2023/08/15 02:16:08;;;;;;;12.30;8.32;;;19.70;99.90;;;;;;4946920;28;20038;-74
2023/08/15 02:18:34;;;;;;;17.60;10.15;;;19.60;99.90;;;;;;4936737;29;20131;-74
2023/08/15 02:21:00;;;;;;;14.07;8.10;;;19.60;99.90;;;;;;4953523;28;20081;-73
2023/08/15 02:23:26;;;;;;;16.85;9.95;;;19.60;99.90;;;;;;4953770;28;20053;-73
2023/08/15 02:25:52;;;;;;;14.95;9.32;;;19.50;99.90;;;;;;4936711;29;20391;-73
2023/08/15 02:28:17;;;;;;;12.65;8.40;;;19.40;99.90;;;;;;4953881;28;20024;-74
2023/08/15 02:30:43;;;;;;;15.68;9.00;;;19.50;99.90;;;;;;4953123;28;20505;-74
2023/08/15 02:33:09;;;;;;;15.20;8.40;;;19.50;99.90;;;;;;4936258;29;20121;-74
2023/08/15 02:35:39;;;;;;;16.00;8.48;;;19.50;99.90;;;;;;4936759;29;20200;-74
2023/08/15 02:38:05;;;;;;;17.17;9.30;;;19.40;99.90;;;;;;4951084;28;20039;-73
2023/08/15 02:40:30;;;;;;;14.85;9.57;;;19.30;99.90;;;;;;4948367;28;20070;-74
2023/08/15 02:42:56;;;;;;;14.65;9.98;;;19.40;99.90;;;;;;4953662;28;20050;-74
2023/08/15 02:45:22;;;;;;;17.10;10.00;;;19.30;99.90;;;;;;4953615;28;20037;-75
2023/08/15 02:47:49;;;;;;;17.65;10.75;;;19.20;99.90;;;;;;4953302;28;20114;-74
2023/08/15 02:50:15;;;;;;;15.05;9.18;;;19.30;99.90;;;;;;4953108;28;20603;-74
2023/08/15 02:52:41;;;;;;;17.05;10.50;;;19.30;99.90;;;;;;4953758;29;20070;-73
2023/08/15 02:55:07;;;;;;;14.40;10.10;;;19.20;99.90;;;;;;4953272;28;20090;-74
2023/08/15 02:57:33;;;;;;;17.45;9.70;;;19.20;99.90;;;;;;4936684;29;20545;-74
2023/08/15 02:59:59;;;;;;;17.40;10.07;;;19.20;99.90;;;;;;4936367;28;20027;-74
2023/08/15 03:02:26;;;;;;;20.60;9.68;;;19.10;99.90;;;;;;4936287;29;20032;-73
2023/08/15 03:04:52;;;;;;;14.98;10.23;;;19.20;99.90;;;;;;4953337;28;20035;-74
2023/08/15 03:07:18;;;;;;;16.50;10.10;;;19.20;99.90;;;;;;4953403;28;20031;-74
2023/08/15 03:09:43;;;;;;;16.65;11.23;;;19.20;99.90;;;;;;4936077;29;20054;-74
2023/08/15 03:12:09;;;;;;;15.60;10.40;;;19.00;99.90;;;;;;4953040;28;20043;-75
2023/08/15 03:14:35;;;;;;;19.30;10.95;;;19.00;99.90;;;;;;4953404;28;20094;-75
2023/08/15 03:17:02;;;;;;;16.23;10.50;;;19.10;99.90;;;;;;4955039;28;20035;-73
2023/08/15 03:19:30;;;;;;;21.05;15.02;;;19.00;99.90;;;;;;4957475;28;20118;-74
2023/08/15 03:21:55;;;;;;;19.90;13.55;;;19.00;99.90;;;;;;4939320;29;20041;-74
2023/08/15 03:24:21;;;;;;;17.77;11.23;;;19.00;99.90;;;;;;4956987;28;20027;-73
2023/08/15 03:26:47;;;;;;;16.08;9.68;;;18.90;99.90;;;;;;4939636;29;20075;-74
2023/08/15 03:29:14;;;;;;;17.50;10.15;;;19.00;99.90;;;;;;4941260;29;20034;-74
2023/08/15 03:31:39;;;;;;;14.27;9.15;;;18.90;99.90;;;;;;4958430;28;20039;-75
2023/08/15 03:34:05;;;;;;;16.85;9.50;;;18.90;99.90;;;;;;4949853;29;20122;-74
2023/08/15 03:36:31;;;;;;;16.02;9.73;;;18.90;99.90;;;;;;4939092;29;20451;-74
2023/08/15 03:38:57;;;;;;;14.25;8.93;;;19.00;99.90;;;;;;4933725;29;20495;-75
2023/08/15 03:41:23;;;;;;;14.70;9.45;;;19.10;99.90;;;;;;4939684;29;20030;-74
2023/08/15 03:43:49;;;;;;;14.57;9.23;;;19.00;99.90;;;;;;4956631;28;20023;-75
2023/08/15 03:46:15;;;;;;;16.08;9.55;;;18.90;99.90;;;;;;4956651;28;20041;-75
2023/08/15 03:48:41;;;;;;;16.20;9.90;;;18.80;99.90;;;;;;4939016;29;20031;-74
2023/08/15 03:51:07;;;;;;;22.13;10.40;;;18.60;99.90;;;;;;4938817;29;20036;-74
2023/08/15 03:53:33;;;;;;;14.65;9.93;;;18.60;99.90;;;;;;4939296;29;20146;-74
2023/08/15 03:56:00;;;;;;;16.55;10.63;;;18.60;99.90;;;;;;4956645;28;20020;-75
2023/08/15 03:58:26;;;;;;;18.70;11.02;;;18.60;99.90;;;;;;4939146;29;20027;-74
2023/08/15 04:00:52;;;;;;;17.67;10.48;;;18.60;99.90;;;;;;4956235;28;20549;-75
2023/08/15 04:03:18;;;;;;;15.25;9.73;;;18.70;99.90;;;;;;4939034;29;20487;-74
2023/08/15 04:05:46;;;;;;;16.73;11.50;;;18.90;99.90;;;;;;4938978;29;20030;-74
2023/08/15 04:08:13;;;;;;;22.85;11.68;;;18.90;99.90;;;;;;4938779;29;20094;-74
2023/08/15 04:10:39;;;;;;;16.10;11.13;;;19.00;99.90;;;;;;4938260;29;20067;-75
2023/08/15 04:13:12;;;;;;;17.65;11.52;;;19.10;99.90;;;;;;4941792;29;20039;-74
2023/08/15 04:15:39;;;;;;;24.50;12.15;;;19.50;99.90;;;;;;4931245;29;20023;-74
2023/08/15 04:18:08;;;;;;;20.27;11.60;;;19.90;99.90;;;;;;4937479;29;20483;-74
2023/08/15 04:20:38;;;;;;;18.73;11.35;;;20.20;99.90;;;;;;4938600;28;20114;-74
2023/08/15 04:23:05;;;;;;;17.45;10.73;;;20.20;99.90;;;;;;4955622;28;20475;-75
2023/08/15 04:25:36;;;;;;;17.42;10.55;;;20.60;99.90;;;;;;4938605;28;20107;-74
2023/08/15 04:28:02;;;;;;;19.02;10.27;;;20.90;99.90;;;;;;4939456;29;20034;-75
2023/08/15 04:30:29;;;;;;;14.45;9.32;;;21.50;99.90;;;;;;4938447;28;20067;-74
2023/08/15 04:32:58;;;;;;;16.67;10.25;;;22.00;99.90;;;;;;4937932;29;20039;-74
2023/08/15 04:35:25;;;;;;;15.93;9.50;;;22.50;99.90;;;;;;4938527;28;20032;-74
2023/08/15 04:37:51;;;;;;;17.85;10.52;;;23.00;99.90;;;;;;4938388;28;20027;-75
2023/08/15 04:40:31;;;;;;;17.90;10.38;;;23.10;99.90;;;;;;4954876;28;20054;-73
2023/08/15 04:42:57;;;;;;;15.27;9.13;;;23.40;99.90;;;;;;4954731;28;20031;-73
2023/08/15 04:45:23;;;;;;;13.90;9.55;;;24.10;99.90;;;;;;4937670;29;20106;-73
2023/08/15 04:47:49;;;;;;;15.25;9.85;;;24.60;99.90;;;;;;4955852;28;20446;-73
2023/08/15 04:50:14;;;;;;;15.40;9.68;;;24.80;99.90;;;;;;4955101;28;20058;-73
2023/08/15 04:52:42;;;;;;;15.10;9.77;;;25.20;99.90;;;;;;4938195;29;20050;-74
2023/08/15 04:55:10;;;;;;;14.82;9.63;;;25.70;99.90;;;;;;4955286;28;20027;-73
2023/08/15 04:57:37;;;;;;;16.98;10.65;;;25.80;99.90;;;;;;4937856;29;20066;-73
2023/08/15 05:00:08;;;;;;;16.23;10.00;;;26.10;99.40;;;;;;4938038;29;20498;-72
2023/08/15 05:02:38;;;;;;;14.38;9.88;;;26.20;98.30;;;;;;4937584;29;20039;-74
2023/08/15 05:05:11;;;;;;;16.30;9.40;;;25.50;98.10;;;;;;4948643;28;20187;-73
2023/08/15 05:07:38;;;;;;;13.73;9.13;;;25.90;98.60;;;;;;4937696;28;20067;-73
2023/08/15 05:10:04;;;;;;;14.93;9.02;;;25.60;98.70;;;;;;4937674;29;20399;-73
2023/08/15 05:12:30;;;;;;;18.27;9.00;;;25.30;98.60;;;;;;4936800;28;20126;-73
2023/08/15 05:14:56;;;;;;;18.08;9.35;;;24.60;99.90;;;;;;4937574;29;20122;-73
2023/08/15 05:17:22;;;;;;;19.55;10.63;;;24.40;99.90;;;;;;4954731;28;20048;-73
2023/08/15 05:19:48;;;;;;;16.25;9.88;;;24.20;99.90;;;;;;4954708;28;20078;-73
2023/08/15 05:22:14;;;;;;;13.73;9.85;;;23.80;99.90;;;;;;4937685;28;20031;-76
2023/08/15 05:24:41;;;;;;;15.52;9.70;;;23.40;99.90;;;;;;4954533;28;20031;-74
2023/08/15 05:27:11;;;;;;;15.82;10.10;;;23.20;99.90;;;;;;4937539;29;20035;-73
2023/08/15 05:29:40;;;;;;;15.23;9.38;;;22.40;99.90;;;;;;4937016;29;20027;-73
2023/08/15 05:32:06;;;;;;;17.75;10.23;;;22.50;99.90;;;;;;4919258;28;20039;-74
2023/08/15 05:34:32;;;;;;;15.88;10.98;;;22.60;99.90;;;;;;4943575;28;20026;-74
2023/08/15 05:36:58;;;;;;;14.55;9.63;;;22.90;99.90;;;;;;4936890;28;20122;-74
2023/08/15 05:39:24;;;;;;;17.67;9.65;;;23.20;99.90;;;;;;4932920;29;20476;-75
2023/08/15 05:41:49;;;;;;;15.27;9.27;;;23.60;99.90;;;;;;4933110;28;20048;-73
2023/08/15 05:44:15;;;;;;;15.93;9.00;;;23.70;99.90;;;;;;4936810;28;20035;-75
2023/08/15 05:46:41;;;;;;;17.02;9.10;;;24.00;99.90;;;;;;4938566;28;20024;-75
2023/08/15 05:49:07;;;;;;;15.43;10.05;;;24.30;99.90;;;;;;4935437;28;20106;-74
2023/08/15 05:51:32;;;;;;;15.48;8.85;;;24.50;99.90;;;;;;4935046;28;20099;-74
2023/08/15 05:53:58;;;;;;;17.75;9.50;;;24.50;99.90;;;;;;4935405;28;20079;-73
2023/08/15 05:56:24;;;;;;;14.80;9.23;;;24.70;99.90;;;;;;4938912;28;20278;-74
2023/08/15 05:58:50;;;;;;;20.85;9.68;;;24.90;99.90;;;;;;4946251;28;20495;-73
2023/08/15 06:01:15;;;;;;;17.00;9.80;;;24.40;99.90;;;;;;4938479;28;20036;-74
2023/08/15 06:03:41;;;;;;;15.35;9.75;;;24.10;99.90;;;;;;4948651;28;20035;-73
2023/08/15 06:06:07;;;;;;;15.27;8.98;;;24.50;99.90;;;;;;4941186;28;20031;-73
2023/08/15 06:08:33;;;;;;;18.15;8.55;;;24.30;99.90;;;;;;4949818;28;20054;-74
2023/08/15 06:10:58;;;;;;;13.00;8.80;;;24.60;99.90;;;;;;4935018;28;20051;-75
2023/08/15 06:13:24;;;;;;;13.65;8.35;;;24.50;99.90;;;;;;4950469;28;20039;-75
2023/08/15 06:15:51;;;;;;;12.15;8.05;;;24.90;99.90;;;;;;4945644;28;20023;-72
2023/08/15 06:18:17;;;;;;;17.77;9.32;;;25.10;99.90;;;;;;4949574;28;20384;-73
2023/08/15 06:20:44;;;;;;;14.65;8.63;;;25.20;99.90;;;;;;4951638;28;20027;-74
2023/08/15 06:23:10;;;;;;;16.67;9.57;;;25.40;99.90;;;;;;4937579;28;20502;-73
2023/08/15 06:25:38;;;;;;;16.27;9.38;;;25.60;98.80;;;;;;4951920;28;20063;-73
2023/08/15 06:28:04;;;;;;;11.95;8.20;;;25.80;99.70;;;;;;4939056;29;20016;-75
2023/08/15 06:30:29;;;;;;;19.80;8.65;;;26.00;99.00;;;;;;4943104;28;20043;-74
2023/08/15 06:32:55;;;;;;;15.80;8.18;;;26.10;99.00;;;;;;4945265;28;20039;-74
2023/08/15 06:35:27;;;;;;;13.88;8.82;;;26.20;97.20;;;;;;4953747;28;20493;-75
2023/08/15 06:37:53;;;;;;;14.90;8.68;;;26.20;97.40;;;;;;4953625;28;20438;-74
2023/08/15 06:40:19;;;;;;;14.02;8.07;;;26.30;97.90;;;;;;4945547;28;20399;-75
2023/08/15 06:42:45;;;;;;;13.30;8.35;;;26.40;97.10;;;;;;4953187;28;20043;-75
2023/08/15 06:45:11;;;;;;;12.88;7.72;;;26.40;94.90;;;;;;4948506;28;20424;-73
2023/08/15 06:47:37;;;;;;;14.00;7.47;;;26.10;94.50;;;;;;4953212;28;20479;-73
2023/08/15 06:50:06;;;;;;;18.13;8.88;;;25.90;95.70;;;;;;4953573;28;20075;-76
2023/08/15 06:52:32;;;;;;;14.98;8.20;;;25.60;96.40;;;;;;4955494;28;20046;-75
2023/08/15 06:54:58;;;;;;;16.25;8.25;;;25.40;96.00;;;;;;4959694;28;20027;-73
2023/08/15 06:57:23;;;;;;;12.70;7.68;;;25.30;96.10;;;;;;4957013;28;20035;-73
2023/08/15 06:59:49;;;;;;;20.75;9.27;;;25.20;97.20;;;;;;4957159;28;20035;-76
2023/08/15 07:02:15;;;;;;;15.50;9.55;;;24.80;97.10;;;;;;4957128;28;20102;-74
2023/08/15 07:04:41;;;;;;;14.75;9.05;;;24.50;99.50;;;;;;4957101;28;20118;-73
2023/08/15 07:07:11;;;;;;;17.33;9.70;;;24.00;99.90;;;;;;4957075;28;20019;-74
2023/08/15 07:09:37;;;;;;;14.30;9.32;;;23.70;99.90;;;;;;4957490;28;20081;-73
2023/08/15 07:12:05;;;;;;;20.05;9.32;;;23.60;99.90;;;;;;4956797;28;20074;-74
2023/08/15 07:14:31;;;;;;;17.70;11.02;;;23.80;99.90;;;;;;4955342;28;20019;-74
2023/08/15 07:16:57;;;;;;;14.65;10.05;;;23.70;99.90;;;;;;4955903;28;20035;-74
2023/08/15 07:19:23;;;;;;;19.45;9.30;;;23.70;99.90;;;;;;4930013;29;20123;-75
2023/08/15 07:21:49;;;;;;;16.10;9.48;;;23.70;99.90;;;;;;4952209;28;20035;-73
2023/08/15 07:24:15;;;;;;;12.90;9.02;;;23.80;99.90;;;;;;4956567;28;20042;-74
2023/08/15 07:26:41;;;;;;;17.42;9.30;;;24.00;99.90;;;;;;4956289;28;20069;-74
2023/08/15 07:29:07;;;;;;;18.88;9.93;;;24.00;99.90;;;;;;4956749;28;20024;-75
2023/08/15 07:31:32;;;;;;;21.63;10.90;;;24.60;99.90;;;;;;4956691;28;20106;-73
2023/08/15 07:33:59;;;;;;;16.33;9.18;;;25.00;99.90;;;;;;4956564;28;20035;-73
2023/08/15 07:36:24;;;;;;;13.60;9.15;;;25.40;99.90;;;;;;4956214;28;20043;-73
2023/08/15 07:38:50;;;;;;;12.50;8.18;;;25.80;98.20;;;;;;4959340;28;20033;-73
2023/08/15 07:41:16;;;;;;;11.32;8.30;;;25.50;95.70;;;;;;4962255;28;20040;-74
2023/08/15 07:43:42;;;;;;;11.05;6.35;;;25.70;95.50;;;;;;4956780;28;20502;-73
2023/08/15 07:46:07;;;;;;;9.07;5.75;;;26.40;95.50;;;;;;4956986;28;20039;-74
2023/08/15 07:48:33;;;;;;;14.38;5.85;;;26.60;91.50;;;;;;4956853;28;20033;-74
2023/08/15 07:50:59;;;;;;;10.63;5.57;;;27.10;91.90;;;;;;4956106;28;20031;-74
2023/08/15 07:53:25;;;;;;;10.82;6.32;;;27.70;92.50;;;;;;4956328;28;20414;-73
2023/08/15 07:55:51;;;;;;;9.13;6.30;;;27.20;91.10;;;;;;4956062;28;20023;-74
2023/08/15 07:58:16;;;;;;;12.00;6.60;;;27.30;91.90;;;;;;4956328;28;20043;-72
2023/08/15 08:00:42;;;;;;;9.07;5.53;;;27.90;93.00;;;;;;4955851;28;20027;-73
2023/08/15 08:03:08;;;;;;;9.07;5.65;;;28.40;91.40;;;;;;4956424;28;20525;-74
2023/08/15 08:05:35;;;;;;;9.75;6.00;;;28.70;87.60;;;;;;4950006;28;20030;-74
2023/08/15 08:08:04;;;;;;;8.10;5.20;;;28.90;88.90;;;;;;4959195;28;20090;-76
2023/08/15 08:10:30;;;;;;;10.65;5.68;;;28.90;85.50;;;;;;4955615;28;20047;-75
2023/08/15 08:13:01;;;;;;;10.02;6.10;;;28.80;88.80;;;;;;4955699;28;20596;-73
2023/08/15 08:15:30;;;;;;;12.25;6.13;;;28.60;86.20;;;;;;4956084;28;20032;-73
2023/08/15 08:17:55;;;;;;;9.27;5.85;;;28.40;85.90;;;;;;4955784;28;20403;-73
2023/08/15 08:20:21;;;;;;;11.50;6.28;;;27.60;85.30;;;;;;4955987;28;20031;-74
2023/08/15 08:22:47;;;;;;;12.20;5.63;;;28.10;86.00;;;;;;4955309;28;20060;-75
2023/08/15 08:25:14;;;;;;;11.23;5.40;;;28.40;85.70;;;;;;4955866;28;20031;-73
2023/08/15 08:27:39;;;;;;;12.82;5.88;;;27.50;85.10;;;;;;4955439;28;20102;-75
2023/08/15 08:30:06;;;;;;;10.55;5.50;;;28.10;86.00;;;;;;4955425;28;20123;-74
2023/08/15 08:32:32;;;;;;;10.88;5.15;;;28.30;85.70;;;;;;4955662;28;20035;-75
2023/08/15 08:34:58;;;;;;;8.43;5.00;;;28.60;84.90;;;;;;4954639;28;20608;-75
2023/08/15 08:37:25;;;;;;;11.30;4.97;;;28.70;85.30;;;;;;4952647;28;20046;-75
2023/08/15 08:39:50;;;;;;;10.95;5.13;;;28.10;84.60;;;;;;4962508;28;20023;-73
2023/08/15 08:42:17;;;;;;;10.75;5.35;;;;;;;;;;4942392;28;20027;-75
2023/08/15 08:44:46;;;;;;;13.45;6.25;;;29.60;93.60;;;;;;4943368;28;20111;-74
2023/08/15 08:47:12;;;;;;;12.15;5.40;;;29.70;84.80;;;;;;4946684;28;20539;-76
2023/08/15 08:49:40;;;;;;;9.90;6.00;;;29.60;83.10;;;;;;4955452;28;20038;-75
2023/08/15 08:52:07;;;;;;;12.80;5.40;;;29.40;83.00;;;;;;4963505;28;20066;-73
2023/08/15 08:54:32;;;;;;;9.95;5.75;;;29.60;82.30;;;;;;4950875;28;20117;-75
2023/08/15 08:57:00;;;;;;;15.93;5.50;;;29.80;83.10;;;;;;4935434;29;20119;-74
2023/08/15 08:59:28;;;;;;;10.65;5.45;;;29.90;82.50;;;;;;4952239;28;20027;-73
2023/08/15 09:01:54;;;;;;;11.40;5.38;;;29.70;82.70;;;;;;4955017;28;20030;-73
2023/08/15 09:04:21;;;;;;;16.23;5.68;;;29.50;82.50;;;;;;4936482;28;20023;-75
2023/08/15 09:06:47;;;;;;;11.25;4.93;;;;;;;;;;4944391;28;20046;-74
2023/08/15 09:09:13;;;;;;;13.07;5.30;;;29.80;99.90;;;;;;4930176;28;20031;-76
2023/08/15 09:11:39;;;;;;;8.32;4.80;;;;;;;;;;4932676;28;20068;-73
2023/08/15 09:14:06;;;;;;;12.32;4.85;;;30.40;84.80;;;;;;4950755;28;20032;-74
2023/08/15 09:16:33;;;;;;;6.65;4.28;;;30.40;80.10;;;;;;4957534;28;20043;-74
2023/08/15 09:19:02;;;;;;;8.68;4.78;;;30.70;81.00;;;;;;4950987;28;20110;-74
2023/08/15 09:21:29;;;;;;;11.00;4.53;;;30.70;79.30;;;;;;4948395;28;20019;-73
2023/08/15 09:24:00;;;;;;;15.10;5.45;;;30.80;79.00;;;;;;4938589;29;20042;-74
2023/08/15 09:26:31;;;;;;;9.65;5.05;;;30.90;81.80;;;;;;4922594;29;20028;-75
2023/08/15 09:28:57;;;;;;;14.30;5.32;;;31.00;86.80;;;;;;4935402;28;20032;-73
2023/08/15 09:31:23;;;;;;;9.73;4.53;;;30.80;86.80;;;;;;4940231;29;20031;-77
2023/08/15 09:33:49;;;;;;;12.25;4.90;;;30.70;85.00;;;;;;4952030;28;20039;-75
2023/08/15 09:36:15;;;;;;;40.05;6.97;;;30.60;86.90;;;;;;4956863;28;20082;-75
2023/08/15 09:38:41;;;;;;;17.48;5.18;;;30.60;85.80;;;;;;4975265;28;20077;-74
2023/08/15 09:41:11;;;;;;;11.85;5.57;;;30.30;87.30;;;;;;4974801;28;20038;-76
2023/08/15 09:43:51;;;;;;;11.18;4.95;;;30.60;87.80;;;;;;4971657;28;20043;-77
2023/08/15 09:46:19;;;;;;;13.30;5.38;;;30.70;87.40;;;;;;4954565;29;20455;-73
2023/08/15 09:48:47;;;;;;;7.90;5.10;;;30.80;88.50;;;;;;4954369;28;20022;-74
2023/08/15 09:51:17;;;;;;;9.38;5.47;;;30.60;87.50;;;;;;4954064;29;20082;-77
2023/08/15 09:53:45;;;;;;;6.87;4.73;;;30.30;87.70;;;;;;4954098;28;20391;-75
2023/08/15 09:56:11;;;;;;;9.15;4.45;;;30.50;88.10;;;;;;4951549;28;20082;-77
2023/08/15 09:58:38;;;;;;;7.15;3.80;;;30.50;88.90;;;;;;4953368;28;20466;-77
2023/08/15 10:01:10;;;;;;;13.88;4.47;;;30.70;86.00;;;;;;4953721;28;20023;-75
2023/08/15 10:03:38;;;;;;;6.65;4.13;;;31.00;84.10;;;;;;4964445;28;20077;-77
2023/08/15 10:06:07;;;;;;;4.43;3.28;;;31.10;77.40;;;;;;4955150;28;20019;-74
2023/08/15 10:08:37;;;;;;;9.20;3.92;;;31.10;76.90;;;;;;4947311;28;20031;-75
2023/08/15 10:11:06;;;;;;;6.97;4.00;;;31.10;77.40;;;;;;4920355;29;20055;-73
2023/08/15 10:13:39;;;;;;;7.72;3.58;;;31.00;76.40;;;;;;4959707;28;20353;-75
2023/08/15 10:16:14;;;;;;;6.10;3.38;;;30.90;78.30;;;;;;4944826;28;20376;-72
2023/08/15 10:19:01;;;;;;;8.82;3.28;;;30.80;77.40;;;;;;4957651;28;20073;-75
2023/08/15 10:21:47;;;;;;;5.38;3.45;;;30.80;78.30;;;;;;4948704;28;20038;-76
2023/08/15 10:24:13;;;;;;;9.25;3.65;;;30.70;75.40;;;;;;4957536;28;20448;-75
2023/08/15 10:26:39;;;;;;;10.48;4.25;;;30.60;79.50;;;;;;4961040;28;20086;-75
2023/08/15 10:29:05;;;;;;;8.07;4.00;;;30.50;78.70;;;;;;4940204;28;20063;-75
2023/08/15 10:31:36;;;;;;;9.82;4.00;;;30.50;78.90;;;;;;4935895;28;20103;-76
2023/08/15 10:34:03;;;;;;;15.68;4.28;;;30.50;76.60;;;;;;4954748;28;20109;-74
2023/08/15 10:36:31;;;;;;;11.77;4.35;;;30.50;77.80;;;;;;4954755;28;20019;-75
2023/08/15 10:39:04;;;;;;;4.90;3.45;;;30.40;76.60;;;;;;4954641;28;20039;-74
2023/08/15 10:41:32;;;;;;;10.73;4.20;;;30.20;76.20;;;;;;4954985;28;20032;-73
2023/08/15 10:44:03;;;;;;;12.55;4.13;;;30.30;76.40;;;;;;4940589;28;20038;-73
2023/08/15 10:46:30;;;;;;;8.98;4.63;;;30.40;77.10;;;;;;4953933;28;20035;-73
2023/08/15 10:49:19;;;;;;;22.88;4.22;;;30.50;79.10;;;;;;4953466;28;20082;-76
2023/08/15 10:51:45;;;;;;;11.18;4.70;;;30.50;78.30;;;;;;4953447;28;20041;-73
2023/08/15 10:54:13;;;;;;;23.23;5.43;;;30.50;79.30;;;;;;4953509;28;20049;-74
2023/08/15 10:56:41;;;;;;;8.88;4.32;;;30.40;78.40;;;;;;4953544;28;20027;-71
2023/08/15 10:59:12;;;;;;;15.20;4.53;;;30.30;77.90;;;;;;4953715;28;20030;-72
2023/08/15 11:01:40;;;;;;;20.10;4.75;;;30.30;77.80;;;;;;4953301;28;20090;-74
2023/08/15 11:04:08;;;;;;;12.07;4.32;;;30.00;77.00;;;;;;4953690;28;20106;-73
2023/08/15 11:06:54;;;;;;;22.60;4.65;;;30.10;78.20;;;;;;4953271;28;20051;-74
2023/08/15 11:09:27;;;;;;;14.52;4.50;;;30.10;76.50;;;;;;4947328;28;20035;-74
2023/08/15 11:11:52;;;;;;;14.90;4.78;;;30.20;78.00;;;;;;4947459;28;20094;-74
2023/08/15 11:14:19;;;;;;;17.75;5.30;;;30.20;78.10;;;;;;4953635;28;20034;-73
2023/08/15 11:16:48;;;;;;;18.40;5.22;;;30.10;77.90;;;;;;4953715;28;20197;-73
2023/08/15 11:19:23;;;;;;;12.95;5.22;;;29.80;78.50;;;;;;4953430;28;20059;-75
2023/08/15 11:21:50;;;;;;;13.40;5.53;;;29.60;77.40;;;;;;4953358;28;20109;-74
2023/08/15 11:24:16;;;;;;;13.27;5.25;;;29.90;80.20;;;;;;4935670;28;20120;-74
2023/08/15 11:26:43;;;;;;;13.43;4.65;;;29.80;80.30;;;;;;4953791;28;20031;-77
2023/08/15 11:29:12;;;;;;;16.60;5.45;;;29.80;81.10;;;;;;4937229;29;20114;-76
2023/08/15 11:31:40;;;;;;;14.15;4.50;;;29.90;80.40;;;;;;4954333;28;20035;-75
2023/08/15 11:34:08;;;;;;;10.55;4.07;;;29.70;79.70;;;;;;4953754;28;20078;-76
2023/08/15 11:36:35;;;;;;;14.45;4.32;;;29.60;80.30;;;;;;4936392;28;21522;-75
2023/08/15 11:39:03;;;;;;;8.18;4.40;;;29.30;79.50;;;;;;4956633;28;20024;-77
2023/08/15 11:41:29;;;;;;;12.10;5.10;;;29.00;78.10;;;;;;4958688;28;20082;-75
2023/08/15 11:43:55;;;;;;;9.63;4.13;;;29.00;79.50;;;;;;4957920;28;20039;-73
2023/08/15 11:46:22;;;;;;;8.02;3.90;;;28.80;78.10;;;;;;4939778;29;20490;-75
2023/08/15 11:49:00;;;;;;;11.00;3.88;;;28.80;80.00;;;;;;4946932;28;20063;-75
2023/08/15 11:51:28;;;;;;;9.75;3.90;;;28.70;80.70;;;;;;4945851;28;20031;-74
2023/08/15 11:53:56;;;;;;;6.78;4.32;;;28.40;79.10;;;;;;4940426;29;20118;-75
2023/08/15 11:56:22;;;;;;;6.47;3.88;;;28.40;80.90;;;;;;4967058;28;20039;-73
2023/08/15 11:58:49;;;;;;;8.57;4.00;;;28.20;80.90;;;;;;4965363;28;20384;-76
2023/08/15 12:01:15;;;;;;;9.88;4.18;;;28.20;81.90;;;;;;4957699;28;20031;-74
2023/08/15 12:03:41;;;;;;;6.03;4.25;;;27.90;82.20;;;;;;4957021;28;20043;-71
2023/08/15 12:06:12;;;;;;;8.38;3.45;;;27.90;81.00;;;;;;4951226;28;20028;-73
2023/08/15 12:08:41;;;;;;;6.55;4.38;;;27.80;81.50;;;;;;4957050;28;20034;-73
2023/08/15 12:11:08;;;;;;;9.52;4.38;;;27.70;80.90;;;;;;4955823;28;20047;-74
2023/08/15 12:13:35;;;;;;;6.57;3.72;;;27.80;83.40;;;;;;4955760;28;20109;-72
2023/08/15 12:16:03;;;;;;;6.07;3.97;;;27.70;82.00;;;;;;4956778;29;20042;-73
2023/08/15 12:18:33;;;;;;;7.18;4.40;;;27.50;80.60;;;;;;4956413;28;20114;-74
2023/08/15 12:21:00;;;;;;;9.13;4.93;;;27.30;80.80;;;;;;4956492;28;20479;-72
2023/08/15 12:23:26;;;;;;;8.00;4.50;;;;;;;;;;4943483;28;20042;-75
2023/08/15 12:25:52;;;;;;;8.80;3.95;;;27.20;93.60;;;;;;4961081;28;20031;-74
2023/08/15 12:28:18;;;;;;;6.65;4.18;;;27.10;87.20;;;;;;4956860;29;20038;-74
2023/08/15 12:30:45;;;;;;;16.08;5.75;;;27.00;81.70;;;;;;4953718;28;20023;-76
2023/08/15 12:33:11;;;;;;;10.40;3.90;;;27.20;84.70;;;;;;4954285;28;20095;-73
2023/08/15 12:35:37;;;;;;;6.82;4.53;;;27.00;81.90;;;;;;4946118;28;20567;-75
2023/08/15 12:38:04;;;;;;;13.63;4.50;;;26.90;82.70;;;;;;4956519;28;20100;-74
2023/08/15 12:40:31;;;;;;;8.82;3.80;;;;;;;;;;4967223;28;20035;-74